createdAt,value
2023-03-29T00:00:51.604Z,216
2023-03-29T00:02:53.561Z,360
2023-03-29T00:06:56.299Z,360
2023-03-29T00:10:59.403Z,360
2023-03-29T00:17:04.172Z,360
2023-03-29T00:21:07.138Z,360
2023-03-29T00:27:11.763Z,360
2023-03-29T00:31:15.268Z,360
2023-03-29T00:33:17.238Z,360
2023-03-29T00:35:18.612Z,360
2023-03-29T00:37:20.415Z,360
2023-03-29T00:43:26.005Z,360
2023-03-29T00:45:27.496Z,360
2023-03-29T00:49:29.893Z,120
2023-03-29T00:53:33.164Z,120
2023-03-29T00:59:37.443Z,120
2023-03-29T01:03:40.865Z,120
2023-03-29T01:05:41.984Z,120
2023-03-29T01:09:45.329Z,120
2023-03-29T01:13:47.480Z,120
2023-03-29T01:15:48.545Z,120
2023-03-29T01:19:51.382Z,120
2023-03-29T01:25:56.185Z,360
2023-03-29T01:29:58.664Z,360
2023-03-29T01:31:59.913Z,360
2023-03-29T01:36:03.377Z,102
2023-03-29T01:42:08.072Z,87
2023-03-29T01:46:11.797Z,87
2023-03-29T01:48:13.112Z,87
2023-03-29T01:52:15.864Z,87
2023-03-29T01:56:19.200Z,87
2023-03-29T01:58:20.729Z,87
2023-03-29T02:02:23.720Z,87
2023-03-29T02:08:28.494Z,86
2023-03-29T02:12:30.689Z,86
2023-03-29T02:14:32.530Z,86
2023-03-29T02:18:35.632Z,86
2023-03-29T02:24:40.926Z,86
2023-03-29T02:28:43.548Z,86
2023-03-29T02:30:45.024Z,86
2023-03-29T02:34:48.269Z,124
2023-03-29T02:38:51.520Z,124
2023-03-29T02:40:52.725Z,124
2023-03-29T02:44:55.017Z,124
2023-03-29T02:50:58.698Z,124
2023-03-29T02:55:01.690Z,360
2023-03-29T02:57:03.072Z,360
2023-03-29T03:01:05.210Z,360
2023-03-29T03:07:08.544Z,360
2023-03-29T03:09:09.941Z,360
2023-03-29T03:13:12.527Z,360
2023-03-29T03:17:15.192Z,360
2023-03-29T03:23:19.652Z,360
2023-03-29T03:27:23.213Z,360
2023-03-29T03:29:24.783Z,360
2023-03-29T03:33:27.936Z,360
2023-03-29T03:37:31.772Z,360
2023-03-29T03:39:32.713Z,360
2023-03-29T03:43:35.401Z,360
2023-03-29T03:49:40.022Z,360
2023-03-29T03:55:44.109Z,360
2023-03-29T03:59:46.661Z,360
2023-03-29T04:02:31.984Z,360
2023-03-29T04:04:33.875Z,360
2023-03-29T04:06:35.445Z,360
2023-03-29T04:10:37.770Z,360
2023-03-29T04:14:40.579Z,360
2023-03-29T04:16:42.021Z,360
2023-03-29T04:20:45.705Z,360
2023-03-29T04:26:50.694Z,360
2023-03-29T04:30:53.553Z,360
2023-03-29T04:32:55.425Z,360
2023-03-29T04:36:58.628Z,360
2023-03-29T04:43:03.460Z,360
2023-03-29T04:47:06.615Z,360
2023-03-29T04:49:08.146Z,360
2023-03-29T04:53:11.194Z,360
2023-03-29T04:57:13.637Z,360
2023-03-29T04:59:15.271Z,360
2023-03-29T05:03:19.010Z,360
2023-03-29T05:09:22.530Z,360
2023-03-29T05:13:26.342Z,360
2023-03-29T05:15:27.654Z,360
2023-03-29T05:19:30.263Z,360
2023-03-29T05:25:34.875Z,360
2023-03-29T05:29:38.108Z,360
2023-03-29T05:31:39.526Z,360
2023-03-29T05:35:42.046Z,360
2023-03-29T05:39:44.702Z,360
2023-03-29T05:41:46.253Z,360
2023-03-29T05:45:49.468Z,360
2023-03-29T05:51:54.330Z,360
2023-03-29T05:55:57.630Z,360
2023-03-29T05:57:59.464Z,360
2023-03-29T06:02:02.698Z,360
2023-03-29T06:08:07.845Z,360
2023-03-29T06:12:10.140Z,360
2023-03-29T06:14:11.588Z,360
2023-03-29T06:18:14.655Z,360
2023-03-29T06:22:17.179Z,360
2023-03-29T06:24:18.989Z,360
2023-03-29T06:28:22.788Z,360
2023-03-29T06:34:27.145Z,360
2023-03-29T06:38:30.026Z,360
2023-03-29T06:40:31.515Z,360
2023-03-29T06:44:34.756Z,360
2023-03-29T06:50:38.901Z,360
2023-03-29T06:56:43.008Z,360
2023-03-29T07:00:45.926Z,360
2023-03-29T07:06:49.995Z,360
2023-03-29T07:10:53.079Z,360
2023-03-29T07:14:54.965Z,360
2023-03-29T07:16:55.858Z,360
2023-03-29T07:20:58.638Z,360
2023-03-29T07:23:01.214Z,360
2023-03-29T07:27:04.657Z,360
2023-03-29T07:33:06.980Z,190
2023-03-29T07:39:10.673Z,132
2023-03-29T07:43:13.635Z,293
2023-03-29T07:49:18.130Z,177
2023-03-29T07:53:21.142Z,203
2023-03-29T07:55:23.140Z,214
2023-03-29T07:59:26.239Z,186
2023-03-29T08:03:29.635Z,176
2023-03-29T08:05:40.440Z,200
2023-03-29T08:09:32.856Z,218
2023-03-29T08:15:37.094Z,217
2023-03-29T08:19:39.526Z,262
2023-03-29T08:21:40.508Z,289
2023-03-29T08:25:44.258Z,205
2023-03-29T08:31:50.036Z,247
2023-03-29T08:35:53.007Z,252
2023-03-29T08:37:53.934Z,222
2023-03-29T08:41:56.377Z,214
2023-03-29T08:45:59.394Z,206
2023-03-29T08:48:00.618Z,225
2023-03-29T08:52:02.945Z,214
2023-03-29T08:58:08.362Z,198
2023-03-29T09:02:11.031Z,201
2023-03-29T09:04:12.775Z,202
2023-03-29T09:08:14.918Z,216
2023-03-29T09:14:19.876Z,208
2023-03-29T09:18:22.447Z,176
2023-03-29T09:20:24.009Z,213
2023-03-29T09:24:26.152Z,208
2023-03-29T09:28:28.254Z,196
2023-03-29T09:30:29.310Z,208
2023-03-29T09:34:31.897Z,187
2023-03-29T09:38:34.976Z,210
2023-03-29T09:40:36.708Z,204
2023-03-29T09:44:38.899Z,207
2023-03-29T09:46:40.159Z,220
2023-03-29T09:48:42.501Z,222
2023-03-29T09:50:43.752Z,219
2023-03-29T09:56:47.746Z,185
2023-03-29T10:02:52.574Z,226
2023-03-29T10:06:55.952Z,218
2023-03-29T10:13:00.631Z,232
2023-03-29T10:17:02.980Z,216
2023-03-29T10:19:03.814Z,207
2023-03-29T10:23:06.770Z,221
2023-03-29T10:27:09.004Z,218
2023-03-29T10:29:10.303Z,216
2023-03-29T10:33:13.549Z,164
2023-03-29T10:39:17.164Z,212
2023-03-29T10:43:20.198Z,197
2023-03-29T10:45:21.798Z,196
2023-03-29T10:48:07.285Z,197
2023-03-29T10:50:08.545Z,203
2023-03-29T10:54:11.386Z,166
2023-03-29T10:56:12.284Z,174
2023-03-29T11:00:15.345Z,208
2023-03-29T11:04:17.493Z,224
2023-03-29T11:06:18.394Z,143
2023-03-29T11:10:20.632Z,226
2023-03-29T11:12:22.259Z,360
2023-03-29T11:14:23.818Z,219
2023-03-29T11:16:24.762Z,216
2023-03-29T11:20:26.899Z,226
2023-03-29T11:22:28.400Z,266
2023-03-29T11:26:30.706Z,227
2023-03-29T11:32:34.712Z,208
2023-03-29T11:38:39.560Z,207
2023-03-29T11:42:42.327Z,209
2023-03-29T11:48:46.698Z,180
2023-03-29T11:52:50.166Z,196
2023-03-29T11:54:51.326Z,235
2023-03-29T11:58:53.585Z,228
2023-03-29T12:02:56.162Z,232
2023-03-29T12:04:57.290Z,203
2023-03-29T12:09:00.933Z,205
2023-03-29T12:15:05.566Z,230
2023-03-29T12:19:07.919Z,219
2023-03-29T12:21:09.183Z,223
2023-03-29T12:25:12.104Z,212
2023-03-29T12:31:15.718Z,224
2023-03-29T12:35:18.296Z,360
2023-03-29T12:37:19.605Z,256
2023-03-29T12:41:22.598Z,224
2023-03-29T12:45:25.908Z,226
2023-03-29T12:47:27.047Z,212
2023-03-29T12:51:29.727Z,234
2023-03-29T12:57:34.491Z,233
2023-03-29T13:01:37.475Z,269
2023-03-29T13:03:38.818Z,230
2023-03-29T13:07:42.019Z,228
2023-03-29T13:13:45.066Z,203
2023-03-29T13:19:48.589Z,197
2023-03-29T13:23:51.314Z,218
2023-03-29T13:29:54.668Z,202
2023-03-29T13:33:57.540Z,224
2023-03-29T13:38:00.164Z,198
2023-03-29T13:40:01.172Z,217
2023-03-29T13:44:03.791Z,206
2023-03-29T13:46:05.598Z,196
2023-03-29T13:48:06.908Z,203
2023-03-29T13:50:08.643Z,224
2023-03-29T13:56:12.823Z,204
2023-03-29T13:58:14.148Z,226
2023-03-29T14:00:24.914Z,227
2023-03-29T14:02:17.529Z,221
2023-03-29T14:06:19.440Z,139
2023-03-29T14:12:23.870Z,218
2023-03-29T14:16:26.359Z,224
2023-03-29T14:18:27.242Z,216
2023-03-29T14:22:31.351Z,228
2023-03-29T14:28:35.433Z,215
2023-03-29T14:30:36.337Z,223
2023-03-29T14:34:38.621Z,226
2023-03-29T14:38:40.708Z,212
2023-03-29T14:44:44.776Z,217
2023-03-29T14:48:47.333Z,231
2023-03-29T14:50:49.095Z,206
2023-03-29T14:54:52.068Z,218
2023-03-29T14:58:54.792Z,210
2023-03-29T15:00:55.883Z,229
2023-03-29T15:04:58.672Z,190
2023-03-29T15:11:02.972Z,206
2023-03-29T15:17:07.742Z,231
2023-03-29T15:21:10.206Z,241
2023-03-29T15:27:13.541Z,212
2023-03-29T15:31:16.207Z,196
2023-03-29T15:33:17.598Z,220
2023-03-29T15:37:19.165Z,194
2023-03-29T15:41:20.936Z,226
2023-03-29T15:43:21.910Z,207
2023-03-29T15:47:25.361Z,198
2023-03-29T15:51:28.193Z,225
2023-03-29T15:53:30.043Z,205
2023-03-29T15:57:32.957Z,209
2023-03-29T15:59:34.331Z,216
2023-03-29T16:03:36.987Z,219
2023-03-29T16:09:40.592Z,173
2023-03-29T16:15:45.115Z,217
2023-03-29T16:19:47.792Z,206
2023-03-29T16:25:52.154Z,240
2023-03-29T16:29:55.051Z,216
2023-03-29T16:31:56.124Z,360
2023-03-29T16:35:58.151Z,176
2023-03-29T16:40:00.601Z,159
2023-03-29T16:42:01.635Z,179
2023-03-29T16:46:03.857Z,172
2023-03-29T16:52:07.547Z,206
2023-03-29T16:56:09.804Z,172
2023-03-29T16:58:10.856Z,148
2023-03-29T17:02:13.134Z,150
2023-03-29T17:08:16.847Z,198
2023-03-29T17:12:19.716Z,136
2023-03-29T17:14:20.980Z,218
2023-03-29T17:18:23.386Z,212
2023-03-29T17:22:25.841Z,210
2023-03-29T17:24:27.629Z,210
2023-03-29T17:28:31.016Z,210
2023-03-29T17:32:33.843Z,360
2023-03-29T17:33:18.217Z,210
2023-03-29T17:35:18.927Z,210
2023-03-29T17:37:20.570Z,360
2023-03-29T17:39:21.703Z,210
2023-03-29T17:45:26.172Z,360
2023-03-29T17:47:27.292Z,360
2023-03-29T17:51:30.280Z,153
2023-03-29T17:55:33.032Z,154
2023-03-29T18:01:39.181Z,255
2023-03-29T18:05:40.925Z,252
2023-03-29T18:11:45.615Z,144
2023-03-29T18:15:48.137Z,144
2023-03-29T18:17:49.518Z,144
2023-03-29T18:21:52.419Z,144
2023-03-29T18:27:57.514Z,144
2023-03-29T18:29:58.849Z,144
2023-03-29T18:34:00.558Z,144
2023-03-29T18:38:03.341Z,144
2023-03-29T18:44:08.452Z,144
2023-03-29T18:48:10.450Z,144
2023-03-29T18:50:12.306Z,144
2023-03-29T18:54:15.419Z,144
2023-03-29T18:58:17.947Z,144
2023-03-29T19:00:19.197Z,144
2023-03-29T19:04:23.975Z,144
2023-03-29T19:10:27.553Z,144
2023-03-29T19:14:29.782Z,132
2023-03-29T19:16:30.685Z,132
2023-03-29T19:20:33.805Z,132
2023-03-29T19:26:37.647Z,132
2023-03-29T19:30:40.406Z,132
2023-03-29T19:32:42.273Z,132
2023-03-29T19:36:45.567Z,132
2023-03-29T19:40:47.735Z,132
2023-03-29T19:42:49.322Z,131
2023-03-29T19:46:52.419Z,131
2023-03-29T19:52:56.973Z,131
2023-03-29T19:56:59.457Z,131
2023-03-29T19:59:00.782Z,131
2023-03-29T20:03:03.068Z,131
2023-03-29T20:09:07.465Z,131
2023-03-29T20:13:10.244Z,131
2023-03-29T20:15:12.101Z,131
2023-03-29T20:19:15.740Z,131
2023-03-29T20:23:18.605Z,131
2023-03-29T20:25:20.083Z,131
2023-03-29T20:29:23.653Z,131
2023-03-29T20:35:28.061Z,131
2023-03-29T20:39:30.716Z,131
2023-03-29T20:41:31.817Z,131
2023-03-29T20:43:32.965Z,353
2023-03-29T20:45:42.895Z,323
2023-03-29T20:51:39.698Z,323
2023-03-29T20:57:42.266Z,323
2023-03-29T21:01:45.515Z,323
2023-03-29T21:07:48.803Z,326
2023-03-29T21:11:51.576Z,326
2023-03-29T21:13:52.807Z,326
2023-03-29T21:17:55.763Z,326
2023-03-29T21:21:59.343Z,326
2023-03-29T21:24:00.621Z,326
2023-03-29T21:28:03.870Z,326
2023-03-29T21:34:08.020Z,326
2023-03-29T21:40:12.656Z,326
2023-03-29T21:44:14.985Z,326
2023-03-29T21:50:20.083Z,326
2023-03-29T21:54:23.364Z,326
2023-03-29T21:56:24.505Z,326
2023-03-29T22:00:27.819Z,326
2023-03-29T22:04:36.844Z,326
2023-03-29T22:06:32.028Z,326
2023-03-29T22:10:34.601Z,326
2023-03-29T22:16:39.159Z,53
2023-03-29T22:20:41.809Z,53
2023-03-29T22:22:42.773Z,360
2023-03-29T22:26:45.521Z,360
2023-03-29T22:32:49.906Z,360
2023-03-29T22:36:53.446Z,360
2023-03-29T22:38:54.730Z,360
2023-03-29T22:42:57.044Z,360
2023-03-29T22:46:59.395Z,360
2023-03-29T22:49:01.174Z,360
2023-03-29T22:53:03.931Z,360
2023-03-29T22:59:09.098Z,360
2023-03-29T23:03:11.711Z,360
2023-03-29T23:05:12.638Z,360
2023-03-29T23:09:16.551Z,360
2023-03-29T23:15:20.133Z,360
2023-03-29T23:21:24.573Z,360
2023-03-29T23:25:27.677Z,360
2023-03-29T23:31:31.803Z,360
2023-03-29T23:35:34.614Z,360
2023-03-29T23:39:36.774Z,360
2023-03-29T23:41:38.275Z,360
2023-03-29T23:45:41.065Z,360
2023-03-29T23:47:42.792Z,360
2023-03-29T23:49:44.597Z,360
2023-03-29T23:51:46.259Z,360
2023-03-29T23:57:50.490Z,360
2023-03-29T23:59:59.697Z,360
